Cornion — CQMH — position and weather

sailwx.info

Track history (hours):
 
Tides and Currents Weather Stations Pressure Air Temp Water Temp Dewpoint Dewpoint Depression Visibility Wind Speed Wind Dir Waves Ship Positions

Cornion

Last reported at 2016-May-28 16:17 UTC. Time now 2016-May-28 19:43 UTC.
Position N 38°57' E 009°29'.

Length 90 m; draft 6.4 m.

Type: Cargo ship. MMSI: 255803370.

Date/timePositionNaut miles runAvg speedWind from/ knotsBaromVisibWave heightAir tempDewpointWater temp
2016-May-28 16:17N 38°57' E 009°29'11 9.7
2016-May-28 15:11N 38°53' E 009°16'25510.2
2016-May-27 14:13N 38°60' E 003°48'710.3
2016-May-27 13:29N 39°00' E 003°39'1010.4
2016-May-27 12:32N 39°01' E 003°26'1110.7
2016-May-27 11:33N 39°02' E 003°12'1010.6
2016-May-27 10:33N 39°02' E 002°59'1010.4
2016-May-27 09:33N 39°04' E 002°45'1010.4
2016-May-27 08:33N 39°07' E 002°32'1010.2
2016-May-27 07:33N 39°09' E 002°20'1010.0
2016-May-27 06:33N 39°12' E 002°07'1010.1
2016-May-27 05:33N 39°14' E 001°55'1110.2
2016-May-27 04:32N 39°16' E 001°41'1110.1
2016-May-27 03:26N 39°19' E 001°27'  
2016-May-23 16:18N 38°06' W 000°03'2910.4
2016-May-23 13:33N 37°42' W 000°23'1110.6
2016-May-23 12:30N 37°33' W 000°31'1210.2
2016-May-23 11:17N 37°25' W 000°43'238 9.3
2016-May-22 09:34N 35°58' W 005°20'261 9.0
2016-May-21 04:33N 38°14' W 009°58'1010.1
2016-May-21 03:32N 38°24' W 010°01'1310.7
2016-May-21 02:20N 38°37' W 010°04'  
2016-May-18 20:33N 39°20' W 009°43'8 8.1
2016-May-18 19:33N 39°12' W 009°43'8 8.2
2016-May-18 18:33N 39°04' W 009°42'8 8.5
2016-May-18 17:33N 38°55' W 009°42'8 8.5
2016-May-18 16:33N 38°47' W 009°42'  
Track history (hours):
 
Tides and Currents Weather Stations Pressure Air Temp Water Temp Dewpoint Dewpoint Depression Visibility Wind Speed Wind Dir Waves Ship Positions

Cornion

Last reported at 2016-May-28 16:17 UTC. Time now 2016-May-28 19:43 UTC.
Position N 38°57' E 009°29'.

Length 90 m; draft 6.4 m.

Type: Cargo ship. MMSI: 255803370.

Date/timePositionNaut miles runAvg speedWind from/ knotsBaromVisibWave heightAir tempDewpointWater temp
2016-May-28 16:17N 38°57' E 009°29'11 9.7
2016-May-28 15:11N 38°53' E 009°16'25510.2
2016-May-27 14:13N 38°60' E 003°48'710.3
2016-May-27 13:29N 39°00' E 003°39'1010.4
2016-May-27 12:32N 39°01' E 003°26'1110.7
2016-May-27 11:33N 39°02' E 003°12'1010.6
2016-May-27 10:33N 39°02' E 002°59'1010.4
2016-May-27 09:33N 39°04' E 002°45'1010.4
2016-May-27 08:33N 39°07' E 002°32'1010.2
2016-May-27 07:33N 39°09' E 002°20'1010.0
2016-May-27 06:33N 39°12' E 002°07'1010.1
2016-May-27 05:33N 39°14' E 001°55'1110.2
2016-May-27 04:32N 39°16' E 001°41'1110.1
2016-May-27 03:26N 39°19' E 001°27'  
2016-May-23 16:18N 38°06' W 000°03'2910.4
2016-May-23 13:33N 37°42' W 000°23'1110.6
2016-May-23 12:30N 37°33' W 000°31'1210.2
2016-May-23 11:17N 37°25' W 000°43'238 9.3
2016-May-22 09:34N 35°58' W 005°20'261 9.0
2016-May-21 04:33N 38°14' W 009°58'1010.1
2016-May-21 03:32N 38°24' W 010°01'1310.7
2016-May-21 02:20N 38°37' W 010°04'  
2016-May-18 20:33N 39°20' W 009°43'8 8.1
2016-May-18 19:33N 39°12' W 009°43'8 8.2
2016-May-18 18:33N 39°04' W 009°42'8 8.5
2016-May-18 17:33N 38°55' W 009°42'8 8.5
2016-May-18 16:33N 38°47' W 009°42'  

Dump ship's entire track history